createdAt,value
2022-10-13T00:00:21.291Z,10.20
2022-10-13T00:01:24.225Z,8.10
2022-10-13T00:02:26.124Z,9.36
2022-10-13T00:03:27.768Z,9.44
2022-10-13T00:04:30.514Z,10.44
2022-10-13T00:05:33.316Z,10.10
2022-10-13T00:06:35.255Z,9.91
2022-10-13T00:07:37.016Z,9.11
2022-10-13T00:08:39.543Z,11.22
2022-10-13T00:09:43.135Z,10.40
2022-10-13T00:10:47.637Z,10.50
2022-10-13T00:11:50.561Z,10.50
2022-10-13T00:12:52.825Z,9.30
2022-10-13T00:15:10.027Z,9.90
2022-10-13T00:16:15.245Z,11.82
2022-10-13T00:17:16.999Z,9.60
2022-10-13T00:18:18.950Z,10.22
2022-10-13T00:19:20.843Z,10.40
2022-10-13T00:20:22.883Z,9.00
2022-10-13T00:21:26.217Z,12.44
2022-10-13T00:22:28.543Z,11.50
2022-10-13T00:23:33.302Z,12.60
2022-10-13T00:24:35.241Z,10.80
2022-10-13T00:26:56.059Z,10.60
2022-10-13T00:27:57.895Z,11.50
2022-10-13T00:29:01.709Z,10.36
2022-10-13T00:30:04.826Z,10.90
2022-10-13T00:31:27.997Z,11.80
2022-10-13T00:32:30.035Z,11.80
2022-10-13T00:33:31.922Z,12.40
2022-10-13T00:34:34.888Z,11.56
2022-10-13T00:35:45.472Z,9.80
2022-10-13T00:36:49.656Z,9.40
2022-10-13T00:37:52.719Z,12.00
2022-10-13T00:38:55.761Z,9.60
2022-10-13T00:39:57.620Z,10.60
2022-10-13T00:40:59.625Z,9.40
2022-10-13T00:42:02.581Z,9.80
2022-10-13T00:43:08.190Z,10.50
2022-10-13T00:44:47.186Z,9.50
2022-10-13T00:45:50.435Z,11.30
2022-10-13T00:46:52.484Z,11.00
2022-10-13T00:48:00.741Z,12.10
2022-10-13T00:49:06.424Z,13.90
2022-10-13T00:50:12.931Z,13.70
2022-10-13T00:51:18.626Z,12.90
2022-10-13T00:52:23.179Z,9.00
2022-10-13T00:53:28.700Z,14.10
2022-10-13T00:54:30.677Z,13.30
2022-10-13T00:55:35.437Z,14.60
2022-10-13T00:56:38.784Z,15.40
2022-10-13T00:57:43.563Z,14.20
2022-10-13T00:58:48.365Z,14.60
2022-10-13T00:59:51.193Z,12.50
2022-10-13T01:00:53.455Z,12.82
2022-10-13T01:01:58.426Z,15.10
2022-10-13T01:03:02.106Z,18.30
2022-10-13T01:04:05.224Z,18.70
2022-10-13T01:05:08.434Z,25.18
2022-10-13T01:06:12.203Z,25.80
2022-10-13T01:07:16.392Z,32.18
2022-10-13T01:08:21.426Z,23.40
2022-10-13T01:09:23.197Z,22.70
2022-10-13T01:10:46.807Z,27.33
2022-10-13T01:12:13.637Z,29.50
2022-10-13T01:13:28.203Z,24.20
2022-10-13T01:14:34.999Z,25.80
2022-10-13T01:15:43.206Z,23.40
2022-10-13T01:17:08.924Z,26.10
2022-10-13T01:18:23.612Z,29.50
2022-10-13T01:19:41.580Z,30.00
2022-10-13T01:21:06.937Z,32.70
2022-10-13T01:22:21.624Z,32.40
2022-10-13T01:23:42.422Z,32.90
2022-10-13T01:24:48.052Z,31.60
2022-10-13T01:26:17.994Z,33.80
2022-10-13T01:27:28.278Z,33.20
2022-10-13T01:28:54.523Z,35.30
2022-10-13T01:30:05.621Z,34.10
2022-10-13T01:31:30.501Z,34.30
2022-10-13T01:32:55.700Z,30.60
2022-10-13T01:34:07.700Z,36.00
2022-10-13T01:35:14.338Z,33.90
2022-10-13T01:36:32.065Z,32.60
2022-10-13T01:37:46.541Z,31.10
2022-10-13T01:38:58.403Z,31.70
2022-10-13T01:40:38.996Z,25.10
2022-10-13T01:41:47.545Z,19.50
2022-10-13T01:43:04.639Z,20.00
2022-10-13T01:44:34.649Z,13.20
2022-10-13T01:45:40.230Z,16.10
2022-10-13T01:46:46.546Z,15.10
2022-10-13T01:47:50.871Z,12.80
2022-10-13T01:48:55.884Z,12.60
2022-10-13T01:49:59.315Z,12.90
2022-10-13T01:51:01.797Z,11.00
2022-10-13T01:52:10.275Z,11.40
2022-10-13T01:53:14.759Z,10.20
2022-10-13T01:54:17.097Z,9.00
2022-10-13T01:55:18.917Z,9.30
2022-10-13T01:56:20.620Z,11.56
2022-10-13T01:57:31.895Z,9.89
2022-10-13T01:58:36.221Z,10.40
2022-10-13T01:59:38.171Z,10.40
2022-10-13T02:00:44.327Z,11.90
2022-10-13T02:02:09.102Z,9.60
2022-10-13T02:03:14.774Z,9.10
2022-10-13T02:04:26.455Z,11.00
2022-10-13T02:05:31.942Z,10.40
2022-10-13T02:06:54.395Z,7.90
2022-10-13T02:08:03.001Z,8.00
2022-10-13T02:09:10.978Z,11.10
2022-10-13T02:11:34.495Z,9.80
2022-10-13T02:12:54.592Z,12.11
2022-10-13T02:14:03.458Z,9.50
2022-10-13T02:15:09.242Z,10.90
2022-10-13T02:16:14.475Z,9.60
2022-10-13T02:17:17.459Z,10.10
2022-10-13T02:18:24.007Z,9.00
2022-10-13T02:19:28.193Z,11.30
2022-10-13T02:20:31.498Z,12.70
2022-10-13T02:21:33.750Z,11.50
2022-10-13T02:22:43.243Z,9.30
2022-10-13T02:23:45.725Z,10.40
2022-10-13T02:24:47.941Z,9.80
2022-10-13T02:25:50.056Z,10.10
2022-10-13T02:26:53.139Z,13.20
2022-10-13T02:27:58.935Z,10.50
2022-10-13T02:29:11.571Z,10.40
2022-10-13T02:30:23.169Z,11.70
2022-10-13T02:31:25.292Z,10.70
2022-10-13T02:32:27.337Z,11.20
2022-10-13T02:33:29.146Z,10.44
2022-10-13T02:34:32.052Z,10.11
2022-10-13T02:35:34.213Z,10.10
2022-10-13T02:36:36.799Z,10.90
2022-10-13T02:37:38.595Z,11.60
2022-10-13T02:38:40.456Z,11.33
2022-10-13T02:39:42.832Z,11.00
2022-10-13T02:40:47.148Z,10.80
2022-10-13T02:41:48.842Z,11.10
2022-10-13T02:42:51.145Z,10.22
2022-10-13T02:43:52.904Z,13.00
2022-10-13T02:44:56.167Z,9.90
2022-10-13T02:45:58.325Z,12.33
2022-10-13T02:47:00.150Z,13.40
2022-10-13T02:48:01.991Z,15.22
2022-10-13T02:49:03.738Z,13.56
2022-10-13T02:50:06.561Z,14.22
2022-10-13T02:51:08.496Z,13.30
2022-10-13T02:52:10.252Z,11.78
2022-10-13T02:53:14.188Z,15.60
2022-10-13T02:54:16.050Z,13.44
2022-10-13T02:55:18.533Z,13.80
2022-10-13T02:56:20.970Z,16.36
2022-10-13T02:57:22.815Z,14.11
2022-10-13T02:58:24.997Z,12.78
2022-10-13T02:59:26.720Z,14.80
2022-10-13T03:00:28.716Z,13.44
2022-10-13T03:01:31.201Z,11.50
2022-10-13T03:02:33.178Z,12.20
2022-10-13T03:03:35.815Z,13.56
2022-10-13T03:04:37.648Z,12.80
2022-10-13T03:05:40.646Z,11.11
2022-10-13T03:06:42.604Z,13.30
2022-10-13T03:07:45.480Z,13.33
2022-10-13T03:08:47.244Z,13.45
2022-10-13T03:09:49.590Z,14.44
2022-10-13T03:10:51.921Z,11.30
2022-10-13T03:11:53.713Z,12.20
2022-10-13T03:12:55.580Z,12.22
2022-10-13T03:13:57.348Z,14.33
2022-10-13T03:14:59.238Z,9.67
2022-10-13T03:16:01.032Z,11.60
2022-10-13T03:17:03.423Z,9.44
2022-10-13T03:18:05.903Z,13.30
2022-10-13T03:19:07.838Z,12.70
2022-10-13T03:20:10.594Z,12.64
2022-10-13T03:21:12.345Z,0.33
2022-10-13T03:22:14.243Z,13.22
2022-10-13T03:23:16.475Z,14.44
2022-10-13T03:24:18.458Z,13.70
2022-10-13T03:25:20.583Z,13.11
2022-10-13T03:26:22.474Z,12.40
2022-10-13T03:27:24.902Z,13.67
2022-10-13T03:28:26.911Z,11.40
2022-10-13T03:29:29.050Z,12.60
2022-10-13T03:30:30.961Z,12.60
2022-10-13T03:31:33.258Z,10.56
2022-10-13T03:32:38.274Z,13.30
2022-10-13T03:33:40.464Z,11.20
2022-10-13T03:34:42.384Z,12.78
2022-10-13T03:35:44.170Z,13.89
2022-10-13T03:36:46.187Z,11.33
2022-10-13T03:37:48.467Z,15.11
2022-10-13T03:38:50.122Z,14.50
2022-10-13T03:39:52.357Z,14.89
2022-10-13T03:40:54.369Z,14.40
2022-10-13T03:41:56.309Z,14.80
2022-10-13T03:42:58.073Z,13.67
2022-10-13T03:43:59.946Z,14.00
2022-10-13T03:45:05.288Z,14.60
2022-10-13T03:46:12.942Z,14.40
2022-10-13T03:47:16.143Z,14.10
2022-10-13T03:48:18.011Z,14.00
2022-10-13T03:49:20.022Z,15.10
2022-10-13T03:50:22.000Z,14.90
2022-10-13T03:51:24.241Z,17.22
2022-10-13T03:52:26.092Z,13.70
2022-10-13T03:53:28.782Z,13.78
2022-10-13T03:54:30.837Z,14.00
2022-10-13T03:55:32.823Z,15.40
2022-10-13T03:56:34.544Z,14.00
2022-10-13T03:57:36.377Z,17.33
2022-10-13T03:58:37.985Z,13.33
2022-10-13T03:59:41.540Z,16.11
2022-10-13T04:00:43.834Z,13.50
2022-10-13T04:01:45.688Z,13.80
2022-10-13T04:02:48.687Z,14.33
2022-10-13T04:03:52.997Z,13.18
2022-10-13T04:04:54.754Z,11.40
2022-10-13T04:06:01.819Z,15.33
2022-10-13T04:07:04.305Z,15.10
2022-10-13T04:08:06.808Z,14.90
2022-10-13T04:09:08.812Z,13.70
2022-10-13T04:10:11.617Z,15.60
2022-10-13T04:11:15.527Z,15.80
2022-10-13T04:12:20.894Z,15.70
2022-10-13T04:13:22.023Z,13.80
2022-10-13T04:14:26.316Z,17.00
2022-10-13T04:15:30.491Z,16.80
2022-10-13T04:16:32.435Z,16.90
2022-10-13T04:17:35.398Z,16.00
2022-10-13T04:18:41.071Z,14.36
2022-10-13T04:19:41.726Z,12.30
2022-10-13T04:20:43.644Z,11.70
2022-10-13T04:21:45.460Z,15.56
2022-10-13T04:22:47.437Z,15.44
2022-10-13T04:23:49.763Z,15.44
2022-10-13T04:24:51.689Z,12.30
2022-10-13T04:25:53.292Z,13.44
2022-10-13T04:26:55.312Z,13.67
2022-10-13T04:27:57.033Z,16.56
2022-10-13T04:28:59.296Z,14.56
2022-10-13T04:30:01.381Z,15.20
2022-10-13T04:31:03.431Z,14.20
2022-10-13T04:32:05.726Z,14.00
2022-10-13T04:33:08.906Z,14.56
2022-10-13T04:34:11.457Z,13.55
2022-10-13T04:35:13.405Z,13.10
2022-10-13T04:36:16.874Z,15.80
2022-10-13T04:37:20.253Z,12.50
2022-10-13T04:38:22.054Z,13.70
2022-10-13T04:39:24.069Z,13.89
2022-10-13T04:40:26.994Z,14.20
2022-10-13T04:41:29.160Z,12.00
2022-10-13T04:42:30.859Z,16.90
2022-10-13T04:43:34.529Z,14.78
2022-10-13T04:44:36.436Z,14.80
2022-10-13T04:45:40.053Z,13.50
2022-10-13T04:46:42.987Z,15.30
2022-10-13T04:47:44.987Z,16.64
2022-10-13T04:48:47.337Z,13.89
2022-10-13T04:49:49.868Z,15.80
2022-10-13T04:52:21.607Z,13.40
2022-10-13T04:53:23.921Z,16.30
2022-10-13T04:54:25.807Z,15.33
2022-10-13T04:55:27.742Z,14.30
2022-10-13T04:56:30.840Z,14.60
2022-10-13T04:57:34.492Z,17.50
2022-10-13T04:58:37.820Z,17.56
2022-10-13T04:59:40.221Z,19.30
2022-10-13T05:00:45.830Z,14.70
2022-10-13T05:01:47.742Z,18.40
2022-10-13T05:02:49.849Z,13.70
2022-10-13T05:03:57.361Z,13.67
2022-10-13T05:04:59.955Z,17.00
2022-10-13T05:06:02.120Z,18.60
2022-10-13T05:07:17.449Z,20.60
2022-10-13T05:08:08.983Z,14.80
2022-10-13T05:09:14.718Z,17.10
2022-10-13T05:10:17.222Z,22.30
2022-10-13T05:11:19.284Z,17.90
2022-10-13T05:12:23.460Z,17.00
2022-10-13T05:13:28.850Z,17.40
2022-10-13T05:14:32.819Z,30.30
2022-10-13T05:15:38.543Z,30.45
2022-10-13T05:16:40.593Z,21.55
2022-10-13T05:17:42.733Z,17.44
2022-10-13T05:18:44.875Z,19.50
2022-10-13T05:19:48.757Z,21.10
2022-10-13T05:20:50.847Z,21.30
2022-10-13T05:21:52.819Z,20.20
2022-10-13T05:22:54.648Z,15.44
2022-10-13T05:23:57.008Z,21.67
2022-10-13T05:24:58.895Z,23.30
2022-10-13T05:26:03.140Z,19.89
2022-10-13T05:27:08.310Z,18.80
2022-10-13T05:28:10.442Z,21.20
2022-10-13T05:29:13.170Z,20.20
2022-10-13T05:30:15.345Z,23.82
2022-10-13T05:31:22.449Z,21.30
2022-10-13T05:32:25.039Z,24.20
2022-10-13T05:33:27.952Z,22.10
2022-10-13T05:34:30.004Z,21.10
2022-10-13T05:35:31.932Z,21.00
2022-10-13T05:36:34.556Z,8.22
2022-10-13T05:37:37.688Z,20.40
2022-10-13T05:38:39.610Z,24.20
2022-10-13T05:39:41.259Z,20.89
2022-10-13T05:40:42.994Z,21.78
2022-10-13T05:41:45.883Z,21.10
2022-10-13T05:42:53.202Z,22.90
2022-10-13T05:44:00.750Z,29.20
2022-10-13T05:45:04.403Z,22.80
2022-10-13T05:46:07.265Z,18.50
2022-10-13T05:47:11.034Z,25.30
2022-10-13T05:48:12.889Z,14.56
2022-10-13T05:49:15.276Z,25.00
2022-10-13T05:50:17.173Z,25.40
2022-10-13T05:51:25.701Z,24.67
2022-10-13T05:52:30.680Z,23.50
2022-10-13T05:53:36.050Z,23.70
2022-10-13T05:54:44.326Z,15.30
2022-10-13T05:55:46.305Z,20.40
2022-10-13T05:56:56.713Z,19.70
2022-10-13T05:58:01.708Z,16.00
2022-10-13T05:59:07.366Z,20.00
2022-10-13T06:00:16.208Z,18.20
2022-10-13T06:01:21.838Z,17.90
2022-10-13T06:02:27.350Z,13.30
2022-10-13T06:03:29.389Z,14.30
2022-10-13T06:04:41.420Z,14.70
2022-10-13T06:05:45.472Z,14.60
2022-10-13T06:06:48.984Z,16.10
2022-10-13T06:07:51.615Z,15.70
2022-10-13T06:08:53.633Z,15.10
2022-10-13T06:09:57.130Z,14.10
2022-10-13T06:10:59.869Z,15.10
2022-10-13T06:12:01.974Z,15.64
2022-10-13T06:13:04.251Z,16.00
2022-10-13T06:14:06.051Z,12.30
2022-10-13T06:15:09.509Z,15.60
2022-10-13T06:16:11.924Z,16.00
2022-10-13T06:17:13.735Z,15.78
2022-10-13T06:18:17.521Z,14.50
2022-10-13T06:19:19.642Z,11.20
2022-10-13T06:20:21.753Z,5.40
2022-10-13T06:21:24.168Z,13.40
2022-10-13T06:22:26.505Z,15.00
2022-10-13T06:23:29.420Z,14.40
2022-10-13T06:24:33.576Z,17.60
2022-10-13T06:25:35.633Z,15.10
2022-10-13T06:26:37.517Z,15.90
2022-10-13T06:27:39.310Z,19.56
2022-10-13T06:28:40.998Z,17.89
2022-10-13T06:29:42.866Z,17.89
2022-10-13T06:30:45.568Z,15.67
2022-10-13T06:31:47.519Z,14.10
2022-10-13T06:32:50.556Z,15.10
2022-10-13T06:33:52.694Z,17.10
2022-10-13T06:34:54.701Z,15.20
2022-10-13T06:35:56.337Z,14.00
2022-10-13T06:36:58.322Z,18.89
2022-10-13T06:38:00.263Z,22.20
2022-10-13T06:39:02.523Z,18.67
2022-10-13T06:40:05.476Z,5.40
2022-10-13T06:41:08.400Z,18.00
2022-10-13T06:42:11.234Z,18.70
2022-10-13T06:43:12.890Z,9.22
2022-10-13T06:44:17.236Z,18.60
2022-10-13T06:45:20.126Z,18.80
2022-10-13T06:46:22.581Z,17.20
2022-10-13T06:47:25.578Z,16.20
2022-10-13T06:48:29.260Z,17.50
2022-10-13T06:49:31.434Z,17.50
2022-10-13T06:50:35.158Z,13.44
2022-10-13T06:51:38.758Z,16.40
2022-10-13T06:52:40.464Z,17.60
2022-10-13T06:53:42.876Z,16.33
2022-10-13T06:54:45.667Z,16.00
2022-10-13T06:55:52.234Z,15.73
2022-10-13T06:56:52.382Z,16.00
2022-10-13T06:57:55.148Z,17.20
2022-10-13T06:58:57.549Z,17.64
2022-10-13T07:00:00.369Z,18.00
2022-10-13T07:01:02.893Z,18.30
2022-10-13T07:02:05.820Z,16.20
2022-10-13T07:03:08.014Z,18.90
2022-10-13T07:04:09.740Z,18.20
2022-10-13T07:05:11.376Z,18.44
2022-10-13T07:06:14.043Z,17.20
2022-10-13T07:07:16.336Z,19.00
2022-10-13T07:08:19.230Z,18.10
2022-10-13T07:09:21.001Z,18.10
2022-10-13T07:10:23.059Z,22.33
2022-10-13T07:11:25.482Z,21.60
2022-10-13T07:12:29.243Z,19.30
2022-10-13T07:13:34.908Z,21.78
2022-10-13T07:14:37.296Z,21.00
2022-10-13T07:15:41.435Z,19.50
2022-10-13T07:16:44.087Z,18.30
2022-10-13T07:17:47.078Z,18.50
2022-10-13T07:18:49.287Z,15.50
2022-10-13T07:19:55.780Z,14.50
2022-10-13T07:20:58.166Z,14.10
2022-10-13T07:22:00.106Z,19.50
2022-10-13T07:23:04.046Z,22.00
2022-10-13T07:24:06.326Z,19.80
2022-10-13T07:25:09.639Z,24.40
2022-10-13T07:26:14.995Z,26.80
2022-10-13T07:27:18.155Z,28.30
2022-10-13T07:28:20.040Z,26.80
2022-10-13T07:29:22.678Z,25.50
2022-10-13T07:30:25.001Z,24.60
2022-10-13T07:31:28.526Z,25.60
2022-10-13T07:32:32.526Z,16.00
2022-10-13T07:33:34.740Z,24.10
2022-10-13T07:34:37.014Z,25.00
2022-10-13T07:35:39.237Z,21.80
2022-10-13T07:36:42.019Z,24.10
2022-10-13T07:37:43.906Z,23.50
2022-10-13T07:38:46.176Z,25.78
2022-10-13T07:39:47.876Z,23.00
2022-10-13T07:40:50.476Z,22.89
2022-10-13T07:41:52.568Z,27.40
2022-10-13T07:42:56.310Z,28.67
2022-10-13T07:43:58.612Z,27.60
2022-10-13T07:45:00.416Z,28.80
2022-10-13T07:46:04.282Z,27.82
2022-10-13T07:47:06.188Z,26.00
2022-10-13T07:48:07.974Z,25.22
2022-10-13T07:49:12.360Z,21.44
2022-10-13T07:50:14.732Z,26.30
2022-10-13T07:51:16.728Z,25.60
2022-10-13T07:52:18.909Z,25.60
2022-10-13T07:53:21.610Z,23.80
2022-10-13T07:54:26.520Z,24.90
2022-10-13T07:55:27.331Z,24.90
2022-10-13T07:56:29.427Z,28.00
2022-10-13T07:57:31.569Z,25.33
2022-10-13T07:58:39.664Z,26.70
2022-10-13T07:59:41.657Z,23.10
2022-10-13T08:00:47.932Z,19.70
2022-10-13T08:01:50.538Z,25.90
2022-10-13T08:02:52.514Z,22.00
2022-10-13T08:03:55.358Z,23.33
2022-10-13T08:04:57.238Z,23.27
2022-10-13T08:06:00.704Z,24.44
2022-10-13T08:07:04.522Z,21.90
2022-10-13T08:08:06.447Z,21.90
2022-10-13T08:09:09.312Z,23.70
2022-10-13T08:10:12.185Z,23.00
2022-10-13T08:11:16.707Z,21.40
2022-10-13T08:12:19.545Z,25.00
2022-10-13T08:13:21.781Z,20.64
2022-10-13T08:14:24.038Z,23.78
2022-10-13T08:15:26.506Z,24.00
2022-10-13T08:16:30.224Z,24.80
2022-10-13T08:17:32.154Z,22.70
2022-10-13T08:18:33.902Z,22.33
2022-10-13T08:19:36.212Z,24.00
2022-10-13T08:20:43.863Z,24.90
2022-10-13T08:22:02.262Z,26.40
2022-10-13T08:22:50.635Z,26.60
2022-10-13T08:23:52.452Z,23.44
2022-10-13T08:24:54.648Z,18.67
2022-10-13T08:25:58.643Z,23.80
2022-10-13T08:27:00.566Z,22.80
2022-10-13T08:28:02.529Z,22.11
2022-10-13T08:30:10.862Z,24.20
2022-10-13T08:31:14.116Z,20.20
2022-10-13T08:32:18.160Z,21.90
2022-10-13T08:33:20.516Z,25.50
2022-10-13T08:34:23.412Z,21.33
2022-10-13T08:35:25.986Z,23.70
2022-10-13T08:36:28.015Z,24.30
2022-10-13T08:37:29.923Z,19.50
2022-10-13T08:38:32.333Z,22.56
2022-10-13T08:39:35.319Z,18.80
2022-10-13T08:40:38.752Z,19.60
2022-10-13T08:41:43.434Z,22.30
2022-10-13T08:42:45.950Z,18.30
2022-10-13T08:44:27.912Z,20.50
2022-10-13T08:46:08.804Z,21.70
2022-10-13T08:47:40.893Z,24.10
2022-10-13T08:48:45.826Z,13.70
2022-10-13T08:49:49.583Z,22.30
2022-10-13T08:51:00.427Z,18.50
2022-10-13T08:52:04.822Z,27.00
2022-10-13T08:53:13.233Z,15.40
2022-10-13T08:54:18.877Z,17.60
2022-10-13T08:55:33.700Z,22.40
2022-10-13T08:56:36.824Z,19.80
2022-10-13T08:57:39.867Z,17.90
2022-10-13T08:58:44.496Z,19.18
2022-10-13T08:59:49.697Z,22.40
2022-10-13T09:01:01.611Z,17.60
2022-10-13T09:02:12.080Z,17.00
2022-10-13T09:03:22.705Z,16.20
2022-10-13T09:04:34.479Z,17.30
2022-10-13T09:05:43.077Z,18.20
2022-10-13T09:06:49.094Z,19.90
2022-10-13T09:09:00.685Z,19.90
2022-10-13T09:10:08.067Z,19.30
2022-10-13T09:11:11.903Z,16.90
2022-10-13T09:12:14.476Z,16.10
2022-10-13T09:13:19.962Z,17.60
2022-10-13T09:14:28.013Z,22.20
2022-10-13T09:15:32.065Z,17.90
2022-10-13T09:16:44.636Z,25.60
2022-10-13T09:17:50.459Z,24.10
2022-10-13T09:18:55.144Z,28.10
2022-10-13T09:20:03.878Z,20.50
2022-10-13T09:22:33.192Z,13.30
2022-10-13T09:23:39.514Z,14.50
2022-10-13T09:24:40.527Z,14.20
2022-10-13T09:25:47.573Z,13.90
2022-10-13T09:26:53.319Z,10.60
2022-10-13T09:27:59.586Z,11.50
2022-10-13T09:29:12.112Z,11.30
2022-10-13T09:30:30.672Z,12.80
2022-10-13T09:31:35.289Z,13.30
2022-10-13T09:32:37.523Z,13.00
2022-10-13T09:33:39.822Z,13.30
2022-10-13T09:34:44.507Z,9.70
2022-10-13T09:36:06.983Z,11.10
2022-10-13T09:37:24.500Z,13.20
2022-10-13T09:38:28.228Z,12.60
2022-10-13T09:39:33.795Z,12.10
2022-10-13T09:40:38.027Z,10.40
2022-10-13T09:41:43.446Z,9.70
2022-10-13T09:42:52.822Z,10.40
2022-10-13T09:43:58.874Z,8.70
2022-10-13T09:45:16.587Z,7.70
2022-10-13T09:46:26.965Z,11.10
2022-10-13T09:47:30.556Z,7.80
2022-10-13T09:48:43.977Z,9.40
2022-10-13T09:51:32.932Z,8.70
2022-10-13T09:52:37.989Z,7.50
2022-10-13T09:53:40.951Z,13.80
2022-10-13T09:54:52.465Z,0.90
2022-10-13T09:56:16.710Z,14.80
2022-10-13T09:57:47.233Z,13.90
2022-10-13T09:58:55.929Z,17.50
2022-10-13T10:00:16.573Z,10.10
2022-10-13T10:01:29.998Z,15.70
2022-10-13T10:02:40.401Z,6.80
2022-10-13T10:03:45.967Z,9.80
2022-10-13T10:04:51.107Z,7.30
2022-10-13T10:06:01.432Z,8.60
2022-10-13T10:07:14.102Z,8.30
2022-10-13T10:08:28.890Z,6.40
2022-10-13T10:09:49.137Z,7.90
2022-10-13T10:10:55.468Z,7.20
2022-10-13T10:12:00.129Z,6.80
2022-10-13T10:13:07.969Z,7.00
2022-10-13T10:14:21.552Z,7.90
2022-10-13T10:15:27.339Z,6.80
2022-10-13T10:16:42.490Z,5.90
2022-10-13T10:17:48.502Z,7.70
2022-10-13T10:18:58.890Z,9.40
2022-10-13T10:20:27.405Z,11.10
2022-10-13T10:21:36.469Z,7.20
2022-10-13T10:22:54.250Z,9.20
2022-10-13T10:24:09.136Z,8.30
2022-10-13T10:25:26.845Z,7.70
2022-10-13T10:26:39.946Z,5.90
2022-10-13T10:27:46.988Z,6.00
2022-10-13T10:29:10.583Z,7.10
2022-10-13T10:30:20.309Z,5.80
2022-10-13T10:31:59.538Z,6.00
2022-10-13T10:33:05.349Z,6.40
2022-10-13T10:34:27.531Z,6.40
2022-10-13T10:35:52.270Z,7.40
2022-10-13T10:37:25.372Z,9.40
2022-10-13T10:38:52.910Z,8.80
2022-10-13T10:40:12.345Z,5.10
2022-10-13T10:41:36.379Z,7.60
2022-10-13T10:42:52.261Z,8.70
2022-10-13T10:43:58.111Z,9.30
2022-10-13T10:45:03.724Z,8.60
2022-10-13T10:47:28.955Z,9.50
2022-10-13T10:48:37.575Z,7.90
2022-10-13T10:49:40.186Z,5.20
2022-10-13T10:50:43.385Z,7.10
2022-10-13T10:51:46.122Z,6.50
2022-10-13T10:53:05.080Z,4.90
2022-10-13T10:54:33.384Z,6.90
2022-10-13T10:55:39.509Z,9.10
2022-10-13T10:56:45.874Z,8.30
2022-10-13T10:58:12.221Z,8.40
2022-10-13T10:59:27.565Z,5.70
2022-10-13T11:00:33.225Z,6.30
2022-10-13T11:01:42.017Z,6.00
2022-10-13T11:02:50.709Z,6.10
2022-10-13T11:04:18.318Z,4.80
2022-10-13T11:05:22.462Z,9.10
2022-10-13T11:06:30.847Z,6.50
2022-10-13T11:07:39.792Z,7.40
2022-10-13T11:08:47.167Z,7.70
2022-10-13T11:09:58.580Z,6.10
2022-10-13T11:11:26.644Z,7.00
2022-10-13T11:12:27.731Z,6.30
2022-10-13T11:13:29.570Z,5.90
2022-10-13T11:14:31.432Z,8.00
2022-10-13T11:15:39.988Z,5.89
2022-10-13T11:17:00.644Z,6.20
2022-10-13T11:18:07.217Z,6.00
2022-10-13T11:19:31.202Z,7.10
2022-10-13T11:20:36.904Z,5.10
2022-10-13T11:22:01.418Z,5.50
2022-10-13T11:23:20.779Z,7.00
2022-10-13T11:24:29.843Z,6.00
2022-10-13T11:25:41.359Z,5.30
2022-10-13T11:26:43.839Z,5.90
2022-10-13T11:27:47.301Z,5.90
2022-10-13T11:28:49.121Z,6.00
2022-10-13T11:29:57.571Z,4.40
2022-10-13T11:31:25.204Z,5.40
2022-10-13T11:32:30.915Z,6.00
2022-10-13T11:33:38.751Z,5.60
2022-10-13T11:34:45.408Z,5.70
2022-10-13T11:35:47.993Z,6.90
2022-10-13T11:36:59.650Z,4.20
2022-10-13T11:38:10.647Z,5.70
2022-10-13T11:39:21.979Z,6.30
2022-10-13T11:40:31.426Z,6.60
2022-10-13T11:41:37.020Z,7.40
2022-10-13T11:45:27.837Z,7.30
2022-10-13T11:46:53.430Z,6.10
2022-10-13T11:48:15.686Z,6.80
2022-10-13T11:49:42.675Z,8.60
2022-10-13T11:51:12.581Z,6.20
2022-10-13T11:52:37.621Z,5.60
2022-10-13T11:55:08.207Z,6.50
2022-10-13T11:56:23.389Z,7.70
2022-10-13T11:57:26.929Z,8.00
2022-10-13T11:58:31.021Z,9.20
2022-10-13T11:59:35.562Z,6.30
2022-10-13T12:00:38.182Z,7.60
2022-10-13T12:01:44.226Z,6.90
2022-10-13T12:02:49.629Z,7.30
2022-10-13T12:03:54.781Z,8.40
2022-10-13T12:05:02.752Z,7.10
2022-10-13T12:06:09.388Z,7.20
2022-10-13T12:07:15.226Z,7.40
2022-10-13T12:08:19.595Z,5.30
2022-10-13T12:09:22.441Z,7.90
2022-10-13T12:10:30.868Z,7.64
2022-10-13T12:11:38.126Z,4.80
2022-10-13T12:12:48.548Z,9.10
2022-10-13T12:13:53.082Z,8.50
2022-10-13T12:14:59.837Z,8.00
2022-10-13T12:16:04.518Z,7.70
2022-10-13T12:17:25.709Z,8.70
2022-10-13T12:18:31.995Z,9.30
2022-10-13T12:19:33.722Z,8.60
2022-10-13T12:20:35.791Z,6.44
2022-10-13T12:21:50.827Z,7.67
2022-10-13T12:22:54.615Z,9.00
2022-10-13T12:24:00.097Z,8.90
2022-10-13T12:25:05.261Z,7.20
2022-10-13T12:26:17.165Z,6.80
2022-10-13T12:27:22.961Z,6.20
2022-10-13T12:28:31.885Z,7.00
2022-10-13T12:29:37.296Z,6.70
2022-10-13T12:30:38.481Z,5.40
2022-10-13T12:31:45.972Z,7.10
2022-10-13T12:32:49.903Z,7.40
2022-10-13T12:33:54.876Z,10.60
2022-10-13T12:35:19.065Z,11.70
2022-10-13T12:36:24.385Z,8.60
2022-10-13T12:37:29.882Z,8.80
2022-10-13T12:38:32.914Z,7.90
2022-10-13T12:39:36.533Z,10.27
2022-10-13T12:40:39.419Z,10.20
2022-10-13T12:41:44.368Z,8.60
2022-10-13T12:42:47.645Z,8.60
2022-10-13T12:43:50.999Z,11.50
2022-10-13T12:44:53.780Z,10.70
2022-10-13T12:45:56.355Z,7.55
2022-10-13T12:47:00.943Z,10.30
2022-10-13T12:48:03.051Z,10.10
2022-10-13T12:49:14.364Z,10.40
2022-10-13T12:50:30.430Z,9.30
2022-10-13T12:51:33.500Z,9.70
2022-10-13T12:52:35.871Z,8.80
2022-10-13T12:53:39.284Z,10.40
2022-10-13T12:54:50.987Z,8.30
2022-10-13T12:56:00.183Z,10.00
2022-10-13T12:57:05.808Z,10.60
2022-10-13T12:58:11.395Z,11.00
2022-10-13T12:59:20.786Z,9.80
2022-10-13T13:00:26.005Z,8.40
2022-10-13T13:01:34.432Z,10.40
2022-10-13T13:02:36.667Z,8.50
2022-10-13T13:03:41.320Z,9.30
2022-10-13T13:04:44.372Z,9.90
2022-10-13T13:05:51.979Z,9.50
2022-10-13T13:07:00.848Z,8.90
2022-10-13T13:08:05.146Z,11.40
2022-10-13T13:10:23.699Z,9.90
2022-10-13T13:11:38.620Z,9.40
2022-10-13T13:12:41.543Z,7.60
2022-10-13T13:13:45.599Z,7.50
2022-10-13T13:16:16.076Z,10.80
2022-10-13T13:18:35.634Z,10.00
2022-10-13T13:19:38.915Z,12.10
2022-10-13T13:20:43.133Z,7.40
2022-10-13T13:21:45.427Z,11.10
2022-10-13T13:22:47.693Z,11.00
2022-10-13T13:23:53.783Z,8.50
2022-10-13T13:24:54.636Z,9.10
2022-10-13T13:26:02.298Z,9.78
2022-10-13T13:27:25.916Z,10.10
2022-10-13T13:28:30.645Z,10.20
2022-10-13T13:29:33.431Z,5.80
2022-10-13T13:30:36.412Z,12.00
2022-10-13T13:31:38.350Z,11.73
2022-10-13T13:32:40.420Z,10.89
2022-10-13T13:33:42.312Z,10.30
2022-10-13T13:34:44.811Z,9.70
2022-10-13T13:35:46.692Z,10.60
2022-10-13T13:36:48.887Z,10.60
2022-10-13T13:37:53.295Z,9.80
2022-10-13T13:38:55.342Z,8.60
2022-10-13T13:39:59.149Z,9.20
2022-10-13T13:41:03.868Z,9.50
2022-10-13T13:42:04.965Z,10.30
2022-10-13T13:43:08.847Z,7.10
2022-10-13T13:44:11.136Z,12.00
2022-10-13T13:45:16.181Z,10.50
2022-10-13T13:46:25.102Z,11.00
2022-10-13T13:47:28.680Z,10.40
2022-10-13T13:48:33.916Z,12.80
2022-10-13T13:49:36.920Z,12.70
2022-10-13T13:50:39.545Z,11.80
2022-10-13T13:51:41.836Z,7.70
2022-10-13T13:52:43.754Z,11.70
2022-10-13T13:53:45.806Z,11.30
2022-10-13T13:54:49.005Z,9.00
2022-10-13T13:55:50.877Z,11.40
2022-10-13T13:56:57.995Z,10.90
2022-10-13T13:58:00.512Z,13.60
2022-10-13T13:59:03.473Z,13.00
2022-10-13T14:00:07.391Z,12.40
2022-10-13T14:01:12.884Z,10.80
2022-10-13T14:02:18.963Z,8.80
2022-10-13T14:03:21.330Z,11.40
2022-10-13T14:04:30.115Z,10.90
2022-10-13T14:05:32.829Z,11.10
2022-10-13T14:06:34.653Z,11.40
2022-10-13T14:07:36.489Z,8.22
2022-10-13T14:08:47.133Z,10.60
2022-10-13T14:09:49.708Z,7.90
2022-10-13T14:10:51.925Z,7.70
2022-10-13T14:11:54.776Z,8.44
2022-10-13T14:12:57.222Z,9.50
2022-10-13T14:13:59.154Z,6.50
2022-10-13T14:15:06.300Z,9.90
2022-10-13T14:16:14.205Z,9.30
2022-10-13T14:17:19.170Z,9.70
2022-10-13T14:18:21.820Z,10.90
2022-10-13T14:19:23.616Z,0.70
2022-10-13T14:20:25.492Z,10.44
2022-10-13T14:21:27.255Z,12.00
2022-10-13T14:22:31.087Z,8.40
2022-10-13T14:23:33.080Z,8.30
2022-10-13T14:24:35.533Z,3.60
2022-10-13T14:25:39.472Z,8.90
2022-10-13T14:26:42.479Z,9.22
2022-10-13T14:27:45.030Z,9.30
2022-10-13T14:28:46.827Z,9.70
2022-10-13T14:29:50.029Z,8.80
2022-10-13T14:30:59.054Z,14.30
2022-10-13T14:32:02.039Z,13.00
2022-10-13T14:33:03.926Z,12.20
2022-10-13T14:34:06.607Z,6.50
2022-10-13T14:35:09.944Z,11.40